Hauptseite
METAR-TAF:

METAR-TAF

Flughäfen :

Luxemburg, Luxemburg

Flughafen Luxemburg

Breite: 49-37N, Länge: 006-13E, Höhe: 376 m

Beobachtung

Neuester Wetterbericht von vor 30 Minuten, um 04:50 UTC
Wind 12 kt aus Nordost
Temperatur 6°C
Luftfeuchtigkeit 56%
Luftdruck 1021 hPa
Sichtweite 10 km oder mehr
keine Wolken unter 1500 m und keine Kumulonimbus oder Gewitterwolken

METAR: ELLX 260450Z 04012KT CAVOK 06/M02 Q1021 NOSIG

Zeit: 07:20 (05:20 UTC)

Prognose

Neuester Wetterbericht von vor 6 Stunden und 20 Minuten, um 23:00 UTC
Gültige Prognose vom 26 um 00 UTC bis 27 um 06 UTC
Wind 10 kt aus Ost/Nordost
Sichtweite 10 km oder mehr
keine Wolken unter 1500 m und keine Kumulonimbus oder Gewitterwolken

TAF: ELLX 252300Z 2600/2706 06010KT CAVOK

Wetterbeobachtungen und Prognosen von mehr als 4000 Flughäfen (METAR und TAF Bericht).

Die verfügbaren Stationen werden durch gelbe und rote Markierungen auf der Karte dargestellt.

Führen Sie die Maus auf sie, um den Namen der Station zu sehen.

Darauf klicken, um die Beobachtung von Wetterbeobachtungen und Prognosen zu sehen.

Um die Karte zu ändern : klicken Sie auf den grünen Tasten mit einem schwarzen Kreuz Zum Vergrößern, auf den grünen Button mit einem Gedankenstrich zu verkleinern, oder auf die grünen Pfeile für benachbarte Karten.


METAR-TAF: